National Weather Service United States Department of Commerce
Click Here for Latest Airport Weather Warnings
 
Latest Huntsville TAF


000
FTUS44 KHUN 210520
TAFHSV
TAF
KHSV 210520Z 2106/2206 16008KT P6SM SCT050 BKN250
FM210800 17010KT P6SM FEW080 SCT250
FM211000 17012G20KT P6SM OVC015
FM212000 17012G20KT P6SM VCSH OVC015
FM212200 18012G20KT 4SM SHRA VCTS BKN008 OVC015CB
FM220000 20010KT 4SM RA OVC008
FM220300 30008KT P6SM SCT015 BKN025=

Latest Muscle Shoals TAF


428
FTUS44 KHUN 210520
TAFMSL
TAF
KMSL 210520Z 2106/2206 16008KT P6SM VCSH SCT050 BKN250
FM210800 17010KT P6SM FEW080 SCT250
FM211000 17012G20KT P6SM OVC015
FM211800 17012G20KT P6SM VCSH OVC015
FM212000 18012G20KT 4SM SHRA VCTS BKN008 OVC015CB
FM212200 20010KT 4SM RA OVC008
FM220100 30008KT P6SM SCT015 BKN025=


Back to Main Huntsville Weather Forecast Office Page